(°C)
23°
22°
22°
21°
21°
21°
20°
(°C)
21°
21°
20°
20°
20°
20°
20°
NNO
NO
ONO
O
O
OZO
OZO
(km/u)
8-20
8-21
9-22
9-23
10-23
9-23
9-21
(mm)
0
0
0
0
0
0
0
(%)
0
0
0
0
0
0
0

Sun elevation

/ -29.9°
sun-icon
UV 9
06:43
20:09
Afnemende maan (324°)
05:11
17:36

METAR for Tampa (KTPF)

Tijd Conditions Temperatuur/
Dauwpunt
Wind Zicht Weer Wolken Luchtdruk Change Raw
VFR 23°C / 11°C 20º 4kt >10km - Scattered Clouds 8000ft - KTPF 090215Z AUTO 02004KT 10SM SCT080 BKN100 OVC120 23/11 A3010 RMK AO2
VFR 24°C / 11°C 20º 5kt >10km - Scattered Clouds 8000ft - KTPF 090155Z AUTO 02005KT 10SM SCT080 BKN100 OVC110 24/11 A3009 RMK AO2
VFR 24°C / 11°C 10º 6kt >10km - Overcast 10000ft - KTPF 090135Z AUTO 01006KT 10SM OVC100 24/11 A3009 RMK AO2
VFR 25°C / 10°C 10º 6kt >10km - Broken Clouds 9000ft - KTPF 090115Z AUTO 01006KT 10SM BKN090 OVC120 25/10 A3008 RMK AO2
VFR 25°C / 10°C 10º 5kt >10km - Broken Clouds 9000ft - KTPF 090055Z AUTO 01005KT 10SM BKN090 OVC120 25/10 A3008 RMK AO2
VFR 25°C / 10°C 360º 7kt >10km - Scattered Clouds 7000ft - KTPF 090035Z AUTO 36007KT 10SM SCT070 BKN100 OVC120 25/10 A3008 RMK AO2
VFR 25°C / 10°C 360º 6kt >10km - Overcast 11000ft - KTPF 090015Z AUTO 36006KT 10SM OVC110 25/10 A3007 RMK AO2
VFR 26°C / 10°C 350º 7kt >10km - Overcast 11000ft - KTPF 082355Z AUTO 35007KT 10SM OVC110 26/10 A3006 RMK AO2
VFR 27°C / 11°C 330º 6kt >10km - Overcast 10000ft - KTPF 082335Z AUTO 33006KT 10SM OVC100 27/11 A3006 RMK AO2
VFR 28°C / 11°C 320º 7kt >10km - Overcast 11000ft - KTPF 082315Z AUTO 32007KT 10SM OVC110 28/11 A3005 RMK AO2
VFR 28°C / 12°C 300º 4kt >10km - Broken Clouds 11000ft - KTPF 082255Z AUTO 30004KT 10SM BKN110 28/12 A3005 RMK AO2
VFR 29°C / 12°C 280º 6kt >10km - Scattered Clouds 9500ft - KTPF 082235Z AUTO 28006KT 10SM SCT095 BKN110 29/12 A3004 RMK AO2
VFR 29°C / 12°C 280º 6kt >10km - Overcast 11000ft - KTPF 082215Z AUTO 28006KT 10SM OVC110 29/12 A3004 RMK AO2
VFR 30°C / 12°C 280º 6kt >10km - Broken Clouds 11000ft - KTPF 082155Z AUTO 28006KT 10SM BKN110 30/12 A3005 RMK AO2
VFR 30°C / 12°C 280º 7kt >10km - Scattered Clouds 8000ft - KTPF 082135Z AUTO 28007KT 10SM SCT080 BKN095 OVC110 30/12 A3005 RMK AO2
VFR 30°C / 11°C 270º 7kt >10km - Scattered Clouds 7500ft - KTPF 082115Z AUTO 27007KT 10SM SCT075 BKN095 OVC110 30/11 A3005 RMK AO2
VFR 30°C / 11°C 260º 6kt >10km - Overcast 9500ft - KTPF 082055Z AUTO 26006KT 10SM OVC095 30/11 A3005 RMK AO2
VFR 31°C / 11°C 250º 4kt >10km - Overcast 10000ft - KTPF 082035Z AUTO 25004KT 10SM OVC100 31/11 A3005 RMK AO2
VFR 31°C / 11°C 220º 3kt >10km - Overcast 10000ft - KTPF 082015Z AUTO 22003KT 10SM OVC100 31/11 A3005 RMK AO2
VFR 31°C / 10°C variable 0kt >10km - Overcast 10000ft - KTPF 081955Z AUTO 00000KT 10SM OVC100 31/10 A3006 RMK AO2
VFR 31°C / 9°C 120º 5kt >10km - Overcast 9500ft - KTPF 081935Z AUTO 12005KT 10SM OVC095 31/09 A3006 RMK AO2
VFR 31°C / 10°C 50º 6kt >10km - Broken Clouds 9500ft - KTPF 081915Z AUTO 05006KT 10SM BKN095 31/10 A3008 RMK AO2
VFR 31°C / 11°C variable 0kt >10km - Scattered Clouds 9500ft - KTPF 081855Z AUTO 00000KT 10SM SCT095 31/11 A3009 RMK AO2
VFR 31°C / 12°C 220º 6kt >10km - Broken Clouds 9500ft - KTPF 081835Z AUTO 22006KT 10SM BKN095 OVC120 31/12 A3009 RMK AO2

VFR

23°C / 11°C

[Meer]
Wind 20º 4kt
Zicht >10km
Weer -
Wolken Scattered Clouds 8000ft
Luchtdruk
Change -
Raw KTPF 090215Z AUTO 02004KT 10SM SCT080 BKN100 OVC120 23/11 A3010 RMK AO2

VFR

24°C / 11°C

[Meer]
Wind 20º 5kt
Zicht >10km
Weer -
Wolken Scattered Clouds 8000ft
Luchtdruk
Change -
Raw KTPF 090155Z AUTO 02005KT 10SM SCT080 BKN100 OVC110 24/11 A3009 RMK AO2

VFR

24°C / 11°C

[Meer]
Wind 10º 6kt
Zicht >10km
Weer -
Wolken Overcast 10000ft
Luchtdruk
Change -
Raw KTPF 090135Z AUTO 01006KT 10SM OVC100 24/11 A3009 RMK AO2

VFR

25°C / 10°C

[Meer]
Wind 10º 6kt
Zicht >10km
Weer -
Wolken Broken Clouds 9000ft
Luchtdruk
Change -
Raw KTPF 090115Z AUTO 01006KT 10SM BKN090 OVC120 25/10 A3008 RMK AO2

VFR

25°C / 10°C

[Meer]
Wind 10º 5kt
Zicht >10km
Weer -
Wolken Broken Clouds 9000ft
Luchtdruk
Change -
Raw KTPF 090055Z AUTO 01005KT 10SM BKN090 OVC120 25/10 A3008 RMK AO2

VFR

25°C / 10°C

[Meer]
Wind 360º 7kt
Zicht >10km
Weer -
Wolken Scattered Clouds 7000ft
Luchtdruk
Change -
Raw KTPF 090035Z AUTO 36007KT 10SM SCT070 BKN100 OVC120 25/10 A3008 RMK AO2

VFR

25°C / 10°C

[Meer]
Wind 360º 6kt
Zicht >10km
Weer -
Wolken Overcast 11000ft
Luchtdruk
Change -
Raw KTPF 090015Z AUTO 36006KT 10SM OVC110 25/10 A3007 RMK AO2

VFR

26°C / 10°C

[Meer]
Wind 350º 7kt
Zicht >10km
Weer -
Wolken Overcast 11000ft
Luchtdruk
Change -
Raw KTPF 082355Z AUTO 35007KT 10SM OVC110 26/10 A3006 RMK AO2

VFR

27°C / 11°C

[Meer]
Wind 330º 6kt
Zicht >10km
Weer -
Wolken Overcast 10000ft
Luchtdruk
Change -
Raw KTPF 082335Z AUTO 33006KT 10SM OVC100 27/11 A3006 RMK AO2

VFR

28°C / 11°C

[Meer]
Wind 320º 7kt
Zicht >10km
Weer -
Wolken Overcast 11000ft
Luchtdruk
Change -
Raw KTPF 082315Z AUTO 32007KT 10SM OVC110 28/11 A3005 RMK AO2

VFR

28°C / 12°C

[Meer]
Wind 300º 4kt
Zicht >10km
Weer -
Wolken Broken Clouds 11000ft
Luchtdruk
Change -
Raw KTPF 082255Z AUTO 30004KT 10SM BKN110 28/12 A3005 RMK AO2

VFR

29°C / 12°C

[Meer]
Wind 280º 6kt
Zicht >10km
Weer -
Wolken Scattered Clouds 9500ft
Luchtdruk
Change -
Raw KTPF 082235Z AUTO 28006KT 10SM SCT095 BKN110 29/12 A3004 RMK AO2

VFR

29°C / 12°C

[Meer]
Wind 280º 6kt
Zicht >10km
Weer -
Wolken Overcast 11000ft
Luchtdruk
Change -
Raw KTPF 082215Z AUTO 28006KT 10SM OVC110 29/12 A3004 RMK AO2

VFR

30°C / 12°C

[Meer]
Wind 280º 6kt
Zicht >10km
Weer -
Wolken Broken Clouds 11000ft
Luchtdruk
Change -
Raw KTPF 082155Z AUTO 28006KT 10SM BKN110 30/12 A3005 RMK AO2

VFR

30°C / 12°C

[Meer]
Wind 280º 7kt
Zicht >10km
Weer -
Wolken Scattered Clouds 8000ft
Luchtdruk
Change -
Raw KTPF 082135Z AUTO 28007KT 10SM SCT080 BKN095 OVC110 30/12 A3005 RMK AO2

VFR

30°C / 11°C

[Meer]
Wind 270º 7kt
Zicht >10km
Weer -
Wolken Scattered Clouds 7500ft
Luchtdruk
Change -
Raw KTPF 082115Z AUTO 27007KT 10SM SCT075 BKN095 OVC110 30/11 A3005 RMK AO2

VFR

30°C / 11°C

[Meer]
Wind 260º 6kt
Zicht >10km
Weer -
Wolken Overcast 9500ft
Luchtdruk
Change -
Raw KTPF 082055Z AUTO 26006KT 10SM OVC095 30/11 A3005 RMK AO2

VFR

31°C / 11°C

[Meer]
Wind 250º 4kt
Zicht >10km
Weer -
Wolken Overcast 10000ft
Luchtdruk
Change -
Raw KTPF 082035Z AUTO 25004KT 10SM OVC100 31/11 A3005 RMK AO2

VFR

31°C / 11°C

[Meer]
Wind 220º 3kt
Zicht >10km
Weer -
Wolken Overcast 10000ft
Luchtdruk
Change -
Raw KTPF 082015Z AUTO 22003KT 10SM OVC100 31/11 A3005 RMK AO2

VFR

31°C / 10°C

[Meer]
Wind variable 0kt
Zicht >10km
Weer -
Wolken Overcast 10000ft
Luchtdruk
Change -
Raw KTPF 081955Z AUTO 00000KT 10SM OVC100 31/10 A3006 RMK AO2

VFR

31°C / 9°C

[Meer]
Wind 120º 5kt
Zicht >10km
Weer -
Wolken Overcast 9500ft
Luchtdruk
Change -
Raw KTPF 081935Z AUTO 12005KT 10SM OVC095 31/09 A3006 RMK AO2

VFR

31°C / 10°C

[Meer]
Wind 50º 6kt
Zicht >10km
Weer -
Wolken Broken Clouds 9500ft
Luchtdruk
Change -
Raw KTPF 081915Z AUTO 05006KT 10SM BKN095 31/10 A3008 RMK AO2

VFR

31°C / 11°C

[Meer]
Wind variable 0kt
Zicht >10km
Weer -
Wolken Scattered Clouds 9500ft
Luchtdruk
Change -
Raw KTPF 081855Z AUTO 00000KT 10SM SCT095 31/11 A3009 RMK AO2

VFR

31°C / 12°C

[Meer]
Wind 220º 6kt
Zicht >10km
Weer -
Wolken Broken Clouds 9500ft
Luchtdruk
Change -
Raw KTPF 081835Z AUTO 22006KT 10SM BKN095 OVC120 31/12 A3009 RMK AO2

Huidige satellietbeelden voor Tampa, Verenigde Staten

De locatiemarkering is geplaatst op Tampa. [Meer]

The real-time satellite image combines visible light during daytime with infrared radiation during nighttime. At night, the image is not dark as infrared radiation can detect temperature differences. Unfortunately, low clouds and fog are difficult to distinguish from ground temperatures and thus can be almost invisible during the night. Meteosat satellite images for Europe are updated in real-time every 5 minutes. GOES-16/GOES-17 (North & South America) and Himawari (Asia) images update every 10 minutes.

Radar en neerslag nowcast voor Tampa

De locatiemarkering wordt geplaatst op Tampa. Deze animation toont de neerslag radar van het afgelopen uur, maar ook de 1h verwachting. Motregen en lichte sneeuw zijn niet zichtbaar op de radar. Neerslag intensiteitwordt in een kleurcode weergegeven, variërend van licht blauw tot zwart paars.